Time;durP1;ratioP1;P1;durP2;ratioP2;P2;SDS_P1;SDS_P2;PMS_P1;PMS_P2;Temp;Humidity;BMP_temperature;BMP_pressure;BME280_temperature;BME280_humidity;BME280_pressure;Samples;Min_cycle;Max_cycle;Signal;HPM_P1;HPM_P2
2023/10/07 00:02:32;;;;;;;;;;;;;;;-145.06;100.00;60892.56;4866391;28;19925;-92
2023/10/07 00:05:16;;;;;;;;;;;;;;;-145.06;100.00;60892.56;4867698;28;20007;-91
2023/10/07 00:08:00;;;;;;;;;;;;;;;-145.06;100.00;60892.56;4863479;28;19921;-91
2023/10/07 00:10:40;;;;;;;;;;;;;;;-145.06;100.00;60892.56;4862120;28;19913;-92
2023/10/07 00:13:30;;;;;;;;;;;;;;;-145.06;100.00;60892.56;4864742;28;19917;-92
2023/10/07 00:16:17;;;;;;;;;;;;;;;-145.06;100.00;60892.56;4863976;28;19913;-92
2023/10/07 00:19:33;;;;;;;;;;;;;;;-145.06;100.00;60892.56;4871734;28;19917;-93
2023/10/07 00:22:14;;;;;;;;;;;;;;;-145.06;100.00;60892.56;4863838;28;19917;-90
2023/10/07 00:24:53;;;;;;;;;;;;;;;-145.06;100.00;60892.56;4864187;28;19913;-90
2023/10/07 00:27:38;;;;;;;;;;;;;;;-145.06;100.00;60892.56;4865738;28;19913;-93
2023/10/07 00:30:27;;;;;;;;;;;;;;;-145.06;100.00;60892.56;4867722;28;19932;-92
2023/10/07 00:33:09;;;;;;;;;;;;;;;-145.06;100.00;60892.56;4863697;28;20007;-91
2023/10/07 00:36:04;;;;;;;;;;;;;;;-145.06;100.00;60892.56;4869106;28;19913;-93
2023/10/07 00:38:46;;;;;;;;;;;;;;;-145.06;100.00;60892.56;4879473;28;19918;-92
2023/10/07 00:41:27;;;;;;;;;;;;;;;-145.06;100.00;60892.56;4853004;28;20008;-92
2023/10/07 00:44:22;;;;;;;;;;;;;;;-145.06;100.00;60892.56;4866094;28;19917;-92
2023/10/07 00:47:12;;;;;;;;;;;;;;;-145.06;100.00;60892.56;4863868;28;19953;-92
2023/10/07 00:49:57;;;;;;;;;;;;;;;-145.06;100.00;60892.56;4863471;28;19913;-92
2023/10/07 00:52:48;;;;;;;;;;;;;;;-145.06;100.00;60892.56;4864887;28;20007;-92
2023/10/07 00:55:34;;;;;;;;;;;;;;;-145.06;100.00;60892.56;4862910;28;19985;-91
2023/10/07 00:58:18;;;;;;;;;;;;;;;-145.06;100.00;60892.56;4877807;28;19960;-93
2023/10/07 01:01:11;;;;;;;;;;;;;;;-145.06;100.00;60892.56;4845975;28;19937;-92
2023/10/07 01:03:54;;;;;;;;;;;;;;;-145.06;100.00;60892.56;4863099;28;19976;-92
2023/10/07 01:06:39;;;;;;;;;;;;;;;-145.06;100.00;60892.56;4862321;28;20218;-91
2023/10/07 01:09:22;;;;;;;;;;;;;;;15.87;100.00;60892.56;4874517;28;19921;-92
2023/10/07 01:12:07;;;;;;;;;;;;;;;15.85;100.00;60892.56;4868483;28;19913;-92
2023/10/07 01:14:49;;;;;;;;;;;;;;;15.84;100.00;60892.56;4861026;28;20004;-93
2023/10/07 01:17:30;;;;;;;;;;;;;;;15.83;100.00;60892.56;4874217;28;19921;-92
2023/10/07 01:20:15;;;;;;;;;;;;;;;15.83;100.00;60892.56;4866123;28;19913;-93
2023/10/07 01:23:33;;;;;;;;;;;;;;;15.82;100.00;60892.56;4866129;28;19953;-93
2023/10/07 01:26:15;;;;;;;;;;;;;;;15.81;100.00;60892.56;4874811;28;19976;-92
2023/10/07 01:29:11;;;;;;;;;;;;;;;15.80;100.00;60892.56;4860949;28;20344;-93
2023/10/07 01:31:59;;;;;;;;;;;;;;;15.78;100.00;60892.56;4868916;28;20028;-92
2023/10/07 01:34:38;;;;;;;;;;;;;;;15.77;100.00;60892.56;4885483;28;19917;-92
2023/10/07 01:37:25;;;;;;;;;;;;;;;15.76;100.00;60892.56;4869718;28;19917;-93
2023/10/07 01:40:11;;;;;;;;;;;;;;;15.75;100.00;60892.56;4860843;28;19913;-91
2023/10/07 01:53:40;;;;;;;;;;;;;;;15.71;0.00;60892.56;6027508;22;19911;-92
2023/10/07 01:56:31;;;;;;;;;;;;;;;15.71;0.00;60892.56;5993600;23;19911;-91
2023/10/07 01:59:21;;;;;;;;;;;;;;;15.69;0.00;60892.56;5991425;23;20315;-93
2023/10/07 02:02:06;;;;;;;;;;;;;;;15.69;0.00;60892.56;5983318;23;19912;-91
2023/10/07 02:04:53;;;;;;;;;;;;;;;15.68;0.00;60892.56;5983931;23;19912;-93
2023/10/07 02:07:39;;;;;;;;;;;;;;;15.68;0.00;60892.56;5963510;23;20375;-91
2023/10/07 02:10:26;;;;;;;;;;;;;;;15.67;0.00;60892.56;5994811;23;19979;-92
2023/10/07 02:13:08;;;;;;;;;;;;;;;15.68;0.00;60892.56;5985103;23;19908;-92
2023/10/07 02:15:54;;;;;;;;;;;;;;;15.68;0.00;60892.56;5983902;23;20279;-92
2023/10/07 02:18:36;;;;;;;;;;;;;;;15.68;0.00;60892.56;5984022;23;19909;-93
2023/10/07 02:21:22;;;;;;;;;;;;;;;15.68;0.00;60892.56;5983424;23;19912;-92
2023/10/07 02:24:07;;;;;;;;;;;;;;;15.70;0.00;60892.56;5983766;23;19908;-92
2023/10/07 02:30:19;;;;;;;;;;;;;;;15.70;0.00;60892.56;5995997;23;19908;-92
2023/10/07 02:33:03;;;;;;;;;;;;;;;15.70;0.00;60892.56;5983509;23;19986;-92
2023/10/07 02:35:46;;;;;;;;;;;;;;;15.71;0.00;60892.56;5984006;23;19916;-92
2023/10/07 02:38:41;;;;;;;;;;;;;;;15.73;0.00;60892.56;5983423;23;20212;-94
2023/10/07 02:41:29;;;;;;;;;;;;;;;15.72;0.00;60892.56;5984014;23;19920;-91
2023/10/07 02:44:17;;;;;;;;;;;;;;;15.75;0.00;60892.56;5986143;23;19932;-94
2023/10/07 02:46:59;;;;;;;;;;;;;;;15.75;0.00;60892.56;5985714;23;19909;-94
2023/10/07 02:49:39;;;;;;;;;;;;;;;15.79;0.00;60892.56;5983629;23;20236;-94
2023/10/07 02:52:24;;;;;;;;;;;;;;;15.79;0.00;60892.56;5997306;23;19912;-93
2023/10/07 02:57:59;;;;;;;;;;;;;;;15.84;0.00;60892.56;6017923;23;19912;-93
2023/10/07 03:00:40;;;;;;;;;;;;;;;15.84;0.00;60892.56;6005093;22;20227;-91
2023/10/07 03:06:12;;;;;;;;;;;;;;;15.87;0.00;60892.56;6018503;23;19912;-90
2023/10/07 03:09:18;;;;;;;;;;;;;;;15.87;0.00;60892.56;5984941;23;19990;-90
2023/10/07 03:12:13;;;;;;;;;;;;;;;-145.06;0.00;60892.56;5986804;23;19908;-93
2023/10/07 03:14:52;;;;;;;;;;;;;;;-145.06;0.00;60892.56;5985480;23;19908;-92
2023/10/07 03:17:52;;;;;;;;;;;;;;;-145.06;0.00;60892.56;5986660;23;19912;-92
2023/10/07 03:20:47;;;;;;;;;;;;;;;-145.06;0.00;60892.56;5985157;23;19916;-92
2023/10/07 03:23:26;;;;;;;;;;;;;;;-145.06;0.00;60892.56;5985131;23;20327;-93
2023/10/07 03:26:08;;;;;;;;;;;;;;;-145.06;0.00;60892.56;5986281;23;19908;-93
2023/10/07 03:36:07;;;;;;;;;;;;;;;-145.06;0.00;60892.56;6017287;23;19908;-93
2023/10/07 03:39:54;;;;;;;;;;;;;;;;;;;;;
2023/10/07 03:41:57;;;;;;;;;;;;;;;-145.06;0.00;60892.56;5978510;23;20323;-94
2023/10/07 03:52:03;;;;;;;;;;;;;;;-145.06;0.00;60892.56;5925768;23;19907;-91
2023/10/07 03:54:43;;;;;;;;;;;;;;;;;;;;;
2023/10/07 03:57:48;;;;;;;;;;;;;;;;;;;;;
2023/10/07 04:00:51;;;;;;;;;;;;;;;;;;;;;
2023/10/07 04:07:06;;;;;;;;;;;;;;;-145.06;0.00;60892.56;5903002;23;19913;-93
2023/10/07 04:16:29;;;;;;;;;;;;;;;-145.06;0.00;60892.56;6018256;23;19912;-93
2023/10/07 04:22:13;;;;;;;;;;;;;;;-145.06;0.00;60892.56;6017115;23;19995;-92
2023/10/07 04:25:07;;;;;;;;;;;;;;;-145.06;0.00;60892.56;6007374;23;19908;-92
2023/10/07 04:28:06;;;;;;;;;;;;;;;-145.06;0.00;60892.56;6004877;23;19908;-93
2023/10/07 04:31:03;;;;;;;;;;;;;;;-145.06;0.00;60892.56;6006854;23;19908;-92
2023/10/07 04:34:11;;;;;;;;;;;;;;;-145.06;0.00;60892.56;6005826;23;19908;-93
2023/10/07 04:43:00;;;;;;;;;;;;;;;-145.06;0.00;60892.56;6016045;23;20380;-93
2023/10/07 04:45:56;;;;;;;;;;;;;;;-145.06;0.00;60892.56;6007804;23;19908;-93
2023/10/07 04:54:48;;;;;;;;;;;;;;;-145.06;0.00;60892.56;6016794;23;19927;-92
2023/10/07 05:00:47;;;;;;;;;;;;;;;-145.06;0.00;60892.56;5926307;23;19913;-92
2023/10/07 05:03:29;;;;;;;;;;;;;;;-145.06;0.00;60892.56;6007178;23;20189;-93
2023/10/07 05:06:13;;;;;;;;;;;;;;;-145.06;0.00;60892.56;6005571;23;19943;-93
2023/10/07 05:08:59;;;;;;;;;;;;;;;-145.06;0.00;60892.56;6005391;23;19908;-93
2023/10/07 05:12:19;;;;;;;;;;;;;;;-145.06;0.00;60892.56;6005493;23;19908;-93
2023/10/07 05:15:08;;;;;;;;;;;;;;;-145.06;0.00;60892.56;6003568;23;19916;-93
2023/10/07 05:18:26;;;;;;;;;;;;;;;-145.06;0.00;60892.56;6006337;23;19928;-92
2023/10/07 05:21:07;;;;;;;;;;;;;;;-145.06;0.00;60892.56;5929552;23;19913;-92
2023/10/07 05:23:47;;;;;;;;;;;;;;;-145.06;0.00;60892.56;6004905;23;19907;-92
2023/10/07 05:26:28;;;;;;;;;;;;;;;-145.06;0.00;60892.56;6005096;23;19908;-93
2023/10/07 05:29:43;;;;;;;;;;;;;;;-145.06;0.00;60892.56;6007047;23;19908;-93
2023/10/07 05:32:35;;;;;;;;;;;;;;;;;;;;;
2023/10/07 05:35:20;;;;;;;;;;;;;;;-145.06;0.00;60892.56;6017016;23;19951;-93
2023/10/07 05:38:04;;;;;;;;;;;;;;;-145.06;0.00;60892.56;6003651;23;19908;-92
2023/10/07 05:40:43;;;;;;;;;;;;;;;-145.06;0.00;60892.56;6005467;23;20327;-93
2023/10/07 05:43:23;;;;;;;;;;;;;;;-145.06;0.00;60892.56;6005000;23;20327;-92
2023/10/07 05:46:08;;;;;;;;;;;;;;;-145.06;0.00;60892.56;6005197;23;19908;-93
2023/10/07 05:48:52;;;;;;;;;;;;;;;-145.06;0.00;60892.56;6006031;23;19908;-92
2023/10/07 05:51:31;;;;;;;;;;;;;;;-145.06;0.00;60892.56;6007379;23;20286;-92
2023/10/07 05:54:24;;;;;;;;;;;;;;;-145.06;0.00;60892.56;6004926;23;19978;-93
2023/10/07 05:57:14;;;;;;;;;;;;;;;-145.06;0.00;60892.56;6005359;23;19912;-93
2023/10/07 06:00:13;;;;;;;;;;;;;;;-145.06;0.00;60892.56;6005255;23;20348;-92
2023/10/07 06:02:55;;;;;;;;;;;;;;;-145.06;0.00;60892.56;6005604;23;19912;-93
2023/10/07 06:05:37;;;;;;;;;;;;;;;-145.06;0.00;60892.56;6004816;23;19912;-93
2023/10/07 06:08:16;;;;;;;;;;;;;;;-145.06;0.00;60892.56;6007366;23;20220;-93
2023/10/07 06:10:59;;;;;;;;;;;;;;;-145.06;0.00;60892.56;6004718;23;19908;-94
2023/10/07 06:13:40;;;;;;;;;;;;;;;-145.06;0.00;60892.56;6004491;23;19912;-94
2023/10/07 06:16:19;;;;;;;;;;;;;;;-145.06;0.00;60892.56;6002568;23;19908;-92
2023/10/07 06:18:58;;;;;;;;;;;;;;;-145.06;0.00;60892.56;6013386;23;19908;-93
2023/10/07 06:21:40;;;;;;;;;;;;;;;-145.06;0.00;60892.56;6002484;23;19912;-91
2023/10/07 06:24:23;;;;;;;;;;;;;;;-145.06;0.00;60892.56;6001930;23;19907;-92
2023/10/07 06:27:06;;;;;;;;;;;;;;;-145.06;0.00;60892.56;6000423;23;19912;-92
2023/10/07 06:29:45;;;;;;;;;;;;;;;-145.06;0.00;60892.56;6002281;23;19912;-89
2023/10/07 06:32:41;;;;;;;;;;;;;;;-145.06;0.00;60892.56;6002633;23;19916;-91
2023/10/07 06:35:25;;;;;;;;;;;;;;;-145.06;0.00;60892.56;6003425;23;19912;-91
2023/10/07 06:38:05;;;;;;;;;;;;;;;-145.06;0.00;60892.56;6002693;23;19987;-92
2023/10/07 06:40:44;;;;;;;;;;;;;;;-145.06;0.00;60892.56;6002672;23;19912;-92
2023/10/07 06:43:24;;;;;;;;;;;;;;;-145.06;0.00;60892.56;6001572;23;20216;-89
2023/10/07 06:46:10;;;;;;;;;;;;;;;-145.06;0.00;60892.56;6000516;23;19912;-92
2023/10/07 06:48:50;;;;;;;;;;;;;;;-145.06;0.00;60892.56;6000424;23;19912;-91
2023/10/07 06:51:29;;;;;;;;;;;;;;;-145.06;0.00;60892.56;6000126;23;20097;-91
2023/10/07 06:54:25;;;;;;;;;;;;;;;-145.06;0.00;60892.56;6003003;23;19908;-91
2023/10/07 06:57:10;;;;;;;;;;;;;;;-145.06;0.00;60892.56;6000011;23;19908;-91
2023/10/07 06:59:53;;;;;;;;;;;;;;;-145.06;0.00;60892.56;5998707;23;19908;-91
2023/10/07 07:02:34;;;;;;;;;;;;;;;-145.06;0.00;60892.56;5998423;23;20247;-91
2023/10/07 07:05:16;;;;;;;;;;;;;;;-145.06;0.00;60892.56;5998983;23;19912;-92
2023/10/07 07:07:57;;;;;;;;;;;;;;;-145.06;0.00;60892.56;5998442;23;19916;-91
2023/10/07 07:10:36;;;;;;;;;;;;;;;-145.06;0.00;60892.56;5996678;23;19908;-92
2023/10/07 07:13:34;;;;;;;;;;;;;;;-145.06;0.00;60892.56;6000607;23;20212;-91
2023/10/07 07:16:13;;;;;;;;;;;;;;;16.87;0.00;60892.56;5998771;23;19927;-92
2023/10/07 07:18:56;;;;;;;;;;;;;;;16.86;0.00;60892.56;5999298;23;19908;-91
2023/10/07 07:21:36;;;;;;;;;;;;;;;16.89;0.00;60892.56;5998663;23;19912;-92
2023/10/07 07:24:21;;;;;;;;;;;;;;;16.90;0.00;60892.56;5998973;23;20388;-91
2023/10/07 07:27:02;;;;;;;;;;;;;;;16.91;0.00;60892.56;5998549;23;19912;-91
2023/10/07 07:29:42;;;;;;;;;;;;;;;16.94;0.00;60892.56;6002704;23;19982;-92
2023/10/07 07:32:21;;;;;;;;;;;;;;;16.96;0.00;60892.56;5999406;23;19912;-91
2023/10/07 07:35:03;;;;;;;;;;;;;;;16.97;0.00;60892.56;5998920;23;19912;-91
2023/10/07 07:37:45;;;;;;;;;;;;;;;16.98;0.00;60892.56;5999087;23;19919;-92
2023/10/07 07:40:38;;;;;;;;;;;;;;;16.99;0.00;60892.56;5998645;23;19911;-91
2023/10/07 07:43:19;;;;;;;;;;;;;;;17.00;0.00;60892.56;6000913;23;19912;-90
2023/10/07 07:46:26;;;;;;;;;;;;;;;17.01;0.00;60892.56;6007263;23;19911;-93
2023/10/07 07:49:08;;;;;;;;;;;;;;;17.04;0.00;60892.56;6001467;23;19916;-92
2023/10/07 07:51:51;;;;;;;;;;;;;;;17.05;0.00;60892.56;6001318;23;19908;-91
2023/10/07 07:54:30;;;;;;;;;;;;;;;17.06;0.00;60892.56;6000648;23;19931;-92
2023/10/07 07:57:16;;;;;;;;;;;;;;;17.07;0.00;60892.56;6001614;23;19908;-91
2023/10/07 07:59:58;;;;;;;;;;;;;;;17.10;0.00;60892.56;6000049;23;19939;-93
2023/10/07 08:02:37;;;;;;;;;;;;;;;17.12;0.00;60892.56;5999440;23;19935;-92
2023/10/07 08:05:16;;;;;;;;;;;;;;;17.14;0.00;60892.56;5999063;23;19912;-91
2023/10/07 08:07:55;;;;;;;;;;;;;;;17.18;0.00;60892.56;5999284;23;20362;-90
2023/10/07 08:10:35;;;;;;;;;;;;;;;-145.06;0.00;60892.56;6000303;23;19951;-92
2023/10/07 08:13:18;;;;;;;;;;;;;;;-145.06;0.00;60892.56;6000035;23;19915;-91
2023/10/07 08:16:05;;;;;;;;;;;;;;;-145.06;0.00;60892.56;6001600;23;20307;-90
2023/10/07 08:18:46;;;;;;;;;;;;;;;-145.06;0.00;60892.56;6001749;23;19908;-93
2023/10/07 08:21:28;;;;;;;;;;;;;;;-145.06;0.00;60892.56;6001604;23;19945;-92
2023/10/07 08:24:07;;;;;;;;;;;;;;;-145.06;0.00;60892.56;6004033;23;19912;-92
2023/10/07 08:26:56;;;;;;;;;;;;;;;-145.06;0.00;60892.56;6003672;23;19912;-92
2023/10/07 08:29:40;;;;;;;;;;;;;;;-145.06;0.00;60892.56;6004547;23;19912;-93
2023/10/07 08:38:45;;;;;;;;;;;;;;;-145.06;0.00;60892.56;5926366;23;19961;-92
2023/10/07 08:41:28;;;;;;;;;;;;;;;-145.06;0.00;60892.56;5999885;23;19943;-92
2023/10/07 08:44:21;;;;;;;;;;;;;;;-145.06;0.00;60892.56;6002881;23;19908;-91
2023/10/07 08:47:04;;;;;;;;;;;;;;;-145.06;0.00;60892.56;6002683;23;19908;-92
2023/10/07 08:49:43;;;;;;;;;;;;;;;-145.06;0.00;60892.56;6001968;23;19911;-91
2023/10/07 08:52:27;;;;;;;;;;;;;;;-145.06;0.00;60892.56;6002966;23;20220;-93
2023/10/07 08:55:09;;;;;;;;;;;;;;;-145.06;0.00;60892.56;6001700;23;19986;-92
2023/10/07 08:57:49;;;;;;;;;;;;;;;-145.06;0.00;60892.56;6000334;23;19911;-92
2023/10/07 09:00:31;;;;;;;;;;;;;;;-145.06;0.00;60892.56;6000777;23;20310;-93
2023/10/07 09:03:14;;;;;;;;;;;;;;;-145.06;0.00;60892.56;5999504;23;19912;-92
2023/10/07 09:06:06;;;;;;;;;;;;;;;-145.06;0.00;60892.56;6003536;23;19908;-93
2023/10/07 09:08:53;;;;;;;;;;;;;;;-145.06;0.00;60892.56;6004639;23;19916;-94
2023/10/07 09:11:36;;;;;;;;;;;;;;;-145.06;0.00;60892.56;6003759;23;20347;-92
2023/10/07 09:14:18;;;;;;;;;;;;;;;-145.06;0.00;60892.56;6001010;23;19920;-92
2023/10/07 09:16:56;;;;;;;;;;;;;;;-145.06;0.00;60892.56;5999515;23;19911;-91
2023/10/07 09:19:36;;;;;;;;;;;;;;;-145.06;0.00;60892.56;6000667;23;19987;-93
2023/10/07 09:22:17;;;;;;;;;;;;;;;-145.06;0.00;60892.56;5998289;23;20201;-93
2023/10/07 09:25:09;;;;;;;;;;;;;;;-145.06;0.00;60892.56;5997451;23;19908;-92
2023/10/07 09:27:56;;;;;;;;;;;;;;;-145.06;0.00;60892.56;6003216;23;19908;-93
2023/10/07 09:30:45;;;;;;;;;;;;;;;;;;;;;
2023/10/07 09:36:57;;;;;;;;;;;;;;;-145.06;0.00;60892.56;5945277;23;20383;-92
2023/10/07 09:39:46;;;;;;;;;;;;;;;-145.06;0.00;60892.56;5942478;23;19908;-93
2023/10/07 09:42:56;;;;;;;;;;;;;;;-145.06;0.00;60892.56;6001959;23;19915;-93
2023/10/07 09:45:28;;;;;;;;;;;;;;;-145.06;0.00;60892.56;6002250;23;19947;-93
2023/10/07 09:48:09;;;;;;;;;;;;;;;-145.06;0.00;60892.56;6002206;23;20022;-91
2023/10/07 09:50:55;;;;;;;;;;;;;;;-145.06;0.00;60892.56;6001506;23;19912;-93
2023/10/07 09:53:41;;;;;;;;;;;;;;;-145.06;0.00;60892.56;6002230;23;19908;-93
2023/10/07 09:56:39;;;;;;;;;;;;;;;-145.06;0.00;60892.56;6001731;23;19908;-93
2023/10/07 09:59:26;;;;;;;;;;;;;;;-145.06;0.00;60892.56;6002486;23;19908;-93
2023/10/07 10:02:25;;;;;;;;;;;;;;;-145.06;0.00;60892.56;6002343;23;19916;-93
2023/10/07 10:05:29;;;;;;;;;;;;;;;-145.06;0.00;60892.56;6003100;23;19912;-93
2023/10/07 10:08:29;;;;;;;;;;;;;;;-145.06;0.00;60892.56;5973958;23;19908;-92
2023/10/07 10:16:57;;;;;;;;;;;;;;;-145.06;0.00;60892.56;6015734;23;20263;-92
2023/10/07 10:19:47;;;;;;;;;;;;;;;-145.06;0.00;60892.56;6004891;23;20327;-92
2023/10/07 10:22:29;;;;;;;;;;;;;;;19.44;0.00;60892.56;6004169;23;19912;-92
2023/10/07 10:25:25;;;;;;;;;;;;;;;-145.06;0.00;60892.56;6004198;23;19912;-92
2023/10/07 10:28:07;;;;;;;;;;;;;;;-145.06;0.00;60892.56;6004075;23;19912;-91
2023/10/07 10:30:47;;;;;;;;;;;;;;;-145.06;0.00;60892.56;6004529;23;19912;-91
2023/10/07 10:33:28;;;;;;;;;;;;;;;-145.06;0.00;60892.56;6005007;23;20208;-91
2023/10/07 10:36:07;;;;;;;;;;;;;;;-145.06;0.00;60892.56;6004241;23;19912;-91
2023/10/07 10:38:46;;;;;;;;;;;;;;;-145.06;0.00;60892.56;6004086;23;19912;-91
2023/10/07 10:41:28;;;;;;;;;;;;;;;-145.06;0.00;60892.56;6004565;23;19915;-92
2023/10/07 10:44:10;;;;;;;;;;;;;;;-145.06;0.00;60892.56;6004085;23;19911;-93
2023/10/07 10:46:52;;;;;;;;;;;;;;;-145.06;0.00;60892.56;6004883;23;19908;-92
2023/10/07 10:49:32;;;;;;;;;;;;;;;-145.06;0.00;60892.56;6004664;23;20330;-90
2023/10/07 10:52:14;;;;;;;;;;;;;;;-145.06;0.00;60892.56;6004444;23;19907;-91
2023/10/07 10:54:54;;;;;;;;;;;;;;;-145.06;0.00;60892.56;6004242;23;19911;-92
2023/10/07 10:57:40;;;;;;;;;;;;;;;-145.06;0.00;60892.56;6004522;23;20374;-92
2023/10/07 11:00:21;;;;;;;;;;;;;;;-145.06;0.00;60892.56;6003986;23;19908;-91
2023/10/07 11:03:03;;;;;;;;;;;;;;;-145.06;0.00;60892.56;6005342;23;19943;-93
2023/10/07 11:05:45;;;;;;;;;;;;;;;-145.06;0.00;60892.56;6004792;23;19908;-93
2023/10/07 11:08:28;;;;;;;;;;;;;;;-145.06;0.00;60892.56;6003995;23;20322;-91
2023/10/07 11:11:10;;;;;;;;;;;;;;;-145.06;0.00;60892.56;6006180;23;19908;-90
2023/10/07 11:13:53;;;;;;;;;;;;;;;-145.06;0.00;60892.56;6004282;23;19912;-92
2023/10/07 11:16:43;;;;;;;;;;;;;;;-145.06;0.00;60892.56;6004722;23;20220;-91
2023/10/07 11:19:22;;;;;;;;;;;;;;;-145.06;0.00;60892.56;6004882;23;19908;-91
2023/10/07 11:22:02;;;;;;;;;;;;;;;-145.06;0.00;60892.56;6004126;23;20275;-92
2023/10/07 11:24:42;;;;;;;;;;;;;;;-145.06;0.00;60892.56;6014302;23;19912;-91
2023/10/07 11:27:26;;;;;;;;;;;;;;;-145.06;0.00;60892.56;6003991;23;20067;-91
2023/10/07 11:30:06;;;;;;;;;;;;;;;-145.06;0.00;60892.56;6004265;23;20012;-92
2023/10/07 11:32:45;;;;;;;;;;;;;;;-145.06;0.00;60892.56;6003967;23;19916;-92
2023/10/07 11:35:34;;;;;;;;;;;;;;;-145.06;0.00;60892.56;6003840;23;19908;-91
2023/10/07 11:38:18;;;;;;;;;;;;;;;-145.06;0.00;60892.56;6004794;23;20215;-91
2023/10/07 11:41:00;;;;;;;;;;;;;;;-145.06;0.00;60892.56;6003836;23;20220;-92
2023/10/07 11:43:47;;;;;;;;;;;;;;;-145.06;0.00;60892.56;6004568;23;19912;-92
2023/10/07 11:46:27;;;;;;;;;;;;;;;-145.06;0.00;60892.56;6003314;23;20062;-93
2023/10/07 11:49:07;;;;;;;;;;;;;;;-145.06;0.00;60892.56;6004121;23;20224;-92
2023/10/07 11:51:48;;;;;;;;;;;;;;;-145.06;0.00;60892.56;6004182;23;19931;-89
2023/10/07 11:54:28;;;;;;;;;;;;;;;-145.06;0.00;60892.56;6003389;23;20208;-91
2023/10/07 11:57:07;;;;;;;;;;;;;;;-145.06;0.00;60892.56;6002561;23;19908;-92
2023/10/07 11:59:49;;;;;;;;;;;;;;;-145.06;0.00;60892.56;6003060;23;19908;-92
2023/10/07 12:02:28;;;;;;;;;;;;;;;-145.06;0.00;60892.56;6002999;23;19916;-92
2023/10/07 12:05:10;;;;;;;;;;;;;;;-145.06;0.00;60892.56;6004086;23;19908;-92
2023/10/07 12:07:54;;;;;;;;;;;;;;;-145.06;0.00;60892.56;6003257;23;19943;-92
2023/10/07 12:10:33;;;;;;;;;;;;;;;-145.06;0.00;60892.56;6004006;23;19912;-92
2023/10/07 12:13:14;;;;;;;;;;;;;;;-145.06;0.00;60892.56;6003848;23;19908;-92
2023/10/07 12:15:54;;;;;;;;;;;;;;;-145.06;0.00;60892.56;6003933;23;19932;-91
2023/10/07 12:18:33;;;;;;;;;;;;;;;-145.06;0.00;60892.56;6002468;23;19912;-91
2023/10/07 12:21:13;;;;;;;;;;;;;;;-145.06;0.00;60892.56;6003620;23;19908;-91
2023/10/07 12:23:53;;;;;;;;;;;;;;;-145.06;0.00;60892.56;6001825;23;19912;-91
2023/10/07 12:26:32;;;;;;;;;;;;;;;-145.06;0.00;60892.56;6002256;23;20375;-91
2023/10/07 12:29:12;;;;;;;;;;;;;;;-145.06;0.00;60892.56;6002065;23;19931;-90
2023/10/07 12:31:58;;;;;;;;;;;;;;;-145.06;0.00;60892.56;6002091;23;19911;-91
2023/10/07 12:34:47;;;;;;;;;;;;;;;-145.06;0.00;60892.56;6003709;23;19908;-92
2023/10/07 12:37:27;;;;;;;;;;;;;;;-145.06;0.00;60892.56;6002245;23;19951;-92
2023/10/07 12:40:11;;;;;;;;;;;;;;;-145.06;0.00;60892.56;6002475;23;19908;-92
2023/10/07 12:42:50;;;;;;;;;;;;;;;-145.06;0.00;60892.56;6012885;23;20220;-92
2023/10/07 12:45:30;;;;;;;;;;;;;;;-145.06;0.00;60892.56;6002020;23;19947;-92
2023/10/07 12:48:10;;;;;;;;;;;;;;;-145.06;0.00;60892.56;6001821;23;19908;-93
2023/10/07 12:50:49;;;;;;;;;;;;;;;-145.06;0.00;60892.56;6003192;23;19908;-92
2023/10/07 12:53:28;;;;;;;;;;;;;;;-145.06;0.00;60892.56;6001221;23;19908;-91
2023/10/07 12:56:17;;;;;;;;;;;;;;;-145.06;0.00;60892.56;6001847;23;20227;-91
2023/10/07 12:58:56;;;;;;;;;;;;;;;-145.06;0.00;60892.56;6002748;23;19912;-92
2023/10/07 13:01:35;;;;;;;;;;;;;;;-145.06;0.00;60892.56;6001822;23;19916;-92
2023/10/07 13:04:14;;;;;;;;;;;;;;;-145.06;0.00;60892.56;6002607;23;19908;-92
2023/10/07 13:07:14;;;;;;;;;;;;;;;-145.06;0.00;60892.56;6000967;23;19911;-90
2023/10/07 13:09:56;;;;;;;;;;;;;;;-145.06;0.00;60892.56;6003185;23;20228;-92
2023/10/07 13:12:35;;;;;;;;;;;;;;;-145.06;0.00;60892.56;6001116;23;19911;-90
2023/10/07 13:15:19;;;;;;;;;;;;;;;-145.06;0.00;60892.56;6002241;23;19916;-91
2023/10/07 13:17:58;;;;;;;;;;;;;;;-145.06;0.00;60892.56;6001060;23;19915;-91
2023/10/07 13:20:38;;;;;;;;;;;;;;;-145.06;0.00;60892.56;6000032;23;20334;-92
2023/10/07 13:23:17;;;;;;;;;;;;;;;-145.06;0.00;60892.56;6001450;23;19915;-92
2023/10/07 13:25:59;;;;;;;;;;;;;;;-145.06;0.00;60892.56;6000611;23;20354;-91
2023/10/07 13:28:39;;;;;;;;;;;;;;;-145.06;0.00;60892.56;6001961;23;19908;-92
2023/10/07 13:31:18;;;;;;;;;;;;;;;-145.06;0.00;60892.56;6000720;23;19908;-92
2023/10/07 13:33:58;;;;;;;;;;;;;;;-145.06;0.00;60892.56;6001195;23;19912;-91
2023/10/07 13:36:38;;;;;;;;;;;;;;;-145.06;0.00;60892.56;6000060;23;19912;-93
2023/10/07 13:39:17;;;;;;;;;;;;;;;-145.06;0.00;60892.56;5999950;23;19912;-92
2023/10/07 13:42:00;;;;;;;;;;;;;;;-145.06;0.00;60892.56;6000939;23;19916;-91
2023/10/07 13:44:40;;;;;;;;;;;;;;;-145.06;0.00;60892.56;6001712;23;19936;-91
2023/10/07 13:47:21;;;;;;;;;;;;;;;-145.06;0.00;60892.56;6001233;23;19912;-91
2023/10/07 13:50:00;;;;;;;;;;;;;;;-145.06;0.00;60892.56;6001386;23;19908;-91
2023/10/07 13:52:51;;;;;;;;;;;;;;;-145.06;0.00;60892.56;5999102;23;19987;-92
2023/10/07 13:58:21;;;;;;;;;;;;;;;-145.06;0.00;60892.56;6013898;23;19911;-91
2023/10/07 14:01:00;;;;;;;;;;;;;;;-145.06;0.00;60892.56;6001641;23;19908;-92
2023/10/07 14:03:39;;;;;;;;;;;;;;;-145.06;0.00;60892.56;6000644;23;19912;-92
2023/10/07 14:06:18;;;;;;;;;;;;;;;-145.06;0.00;60892.56;6002096;23;19991;-92
2023/10/07 14:08:58;;;;;;;;;;;;;;;-145.06;0.00;60892.56;6001046;23;20370;-91
2023/10/07 14:11:37;;;;;;;;;;;;;;;-145.06;0.00;60892.56;6001715;23;20330;-91
2023/10/07 14:14:16;;;;;;;;;;;;;;;-145.06;0.00;60892.56;6001683;23;19912;-92
2023/10/07 14:16:58;;;;;;;;;;;;;;;-145.06;0.00;60892.56;6000922;23;19911;-91
2023/10/07 14:19:38;;;;;;;;;;;;;;;-145.06;0.00;60892.56;6000398;23;19912;-92
2023/10/07 14:22:17;;;;;;;;;;;;;;;-145.06;0.00;60892.56;6000781;23;19916;-90
2023/10/07 14:24:57;;;;;;;;;;;;;;;-145.06;0.00;60892.56;6000788;23;19908;-91
2023/10/07 14:27:36;;;;;;;;;;;;;;;-145.06;0.00;60892.56;5999991;23;19908;-91
2023/10/07 14:30:17;;;;;;;;;;;;;;;-145.06;0.00;60892.56;6000044;23;20531;-91
2023/10/07 14:32:56;;;;;;;;;;;;;;;-145.06;0.00;60892.56;6000586;23;19912;-91
2023/10/07 14:35:36;;;;;;;;;;;;;;;-145.06;0.00;60892.56;5999696;23;19955;-91
2023/10/07 14:38:15;;;;;;;;;;;;;;;-145.06;0.00;60892.56;6000172;23;19912;-91
2023/10/07 14:40:54;;;;;;;;;;;;;;;-145.06;0.00;60892.56;6001174;23;19908;-91
2023/10/07 14:43:35;;;;;;;;;;;;;;;-145.06;0.00;60892.56;5998787;23;19916;-91
2023/10/07 14:46:15;;;;;;;;;;;;;;;-145.06;0.00;60892.56;6000041;23;19931;-92
2023/10/07 14:48:53;;;;;;;;;;;;;;;-145.06;0.00;60892.56;6000055;23;19911;-92
2023/10/07 14:51:35;;;;;;;;;;;;;;;-145.06;0.00;60892.56;6002103;23;19908;-92
2023/10/07 14:54:17;;;;;;;;;;;;;;;-145.06;0.00;60892.56;6002310;23;20327;-91
2023/10/07 14:56:56;;;;;;;;;;;;;;;-145.06;0.00;60892.56;6002255;23;19911;-91
2023/10/07 14:59:36;;;;;;;;;;;;;;;-145.06;0.00;60892.56;6001602;23;19912;-91
2023/10/07 15:02:15;;;;;;;;;;;;;;;-145.06;0.00;60892.56;6002177;23;19916;-91
2023/10/07 15:04:54;;;;;;;;;;;;;;;-145.06;0.00;60892.56;6001896;23;19908;-91
2023/10/07 15:07:33;;;;;;;;;;;;;;;-145.06;0.00;60892.56;6001325;23;19936;-91
2023/10/07 15:10:14;;;;;;;;;;;;;;;-145.06;0.00;60892.56;5980056;23;19912;-90
2023/10/07 15:12:55;;;;;;;;;;;;;;;-145.06;0.00;60892.56;6002249;23;19944;-92
2023/10/07 15:15:35;;;;;;;;;;;;;;;-145.06;0.00;60892.56;6002704;23;19916;-92
2023/10/07 15:18:17;;;;;;;;;;;;;;;-145.06;0.00;60892.56;6002270;23;19907;-92
2023/10/07 15:21:05;;;;;;;;;;;;;;;-145.06;0.00;60892.56;6001157;23;19912;-91
2023/10/07 15:23:45;;;;;;;;;;;;;;;-145.06;0.00;60892.56;6001562;23;19912;-92
2023/10/07 15:26:24;;;;;;;;;;;;;;;-145.06;0.00;60892.56;6002863;23;19908;-91
2023/10/07 15:29:05;;;;;;;;;;;;;;;-145.06;0.00;60892.56;6001153;23;20378;-92
2023/10/07 15:31:44;;;;;;;;;;;;;;;-145.06;0.00;60892.56;6000905;23;19928;-91
2023/10/07 15:34:24;;;;;;;;;;;;;;;-145.06;0.00;60892.56;6002624;23;19908;-92
2023/10/07 15:37:04;;;;;;;;;;;;;;;-145.06;0.00;60892.56;6000593;23;19912;-93